»·PEaware :: DAL354 KGJT-KASE

DAL354 :: KGJT-KASE

FLIGHT INFORMATION

Flight Status: Arrived
Operator:
Delta Air Lines
More flights by this operator :: More flights under this callsign
Pilot: Sergei F. (8485)
Aircraft: BOEING 737-300
(B733)
More flights by this aircraft type
Origin: KGJT Walker
United States
Destination: KASE Aspen-Pitkin Co/Sardy
United States
More flights between these airports :: More routes between these airports
Route: +JNC V134 DBL
File this flight plan on PilotEdge
Remarks:
Altitude:
(Current/Filed)
17,000ft
Speed:
(Current/Filed)
300kts
Departed: 30-Sep-17 08:39 PM
Arrived: 30-Sep-17 09:09 PM
Distance/Time
Traveled:
77nm/0:30
Distance/Time
To Go:
Arrived

Flight Plot

Page will automatically refresh every two minutes.

Flight plan parsing failed; only flown route is shown


Map Options




Map Legend


Flown Route
Filed Route
Departure Airport
Arrival Airport
Navaid (VOR, NDB)
Fix

Horizontal Profiles

Position Reports

Time Latitude Longitude Heading Altitude Ground
Speed
30-Sep-17 20:13 39.123293 -108.528946 213 4834ft 0kts
30-Sep-17 20:14 39.123293 -108.528946 213 4834ft 0kts
30-Sep-17 20:15 39.123293 -108.528946 213 4834ft 0kts
30-Sep-17 20:16 39.123293 -108.528946 213 4834ft 0kts
30-Sep-17 20:17 39.123293 -108.528946 213 4834ft 0kts
30-Sep-17 20:18 39.123293 -108.528946 213 4834ft 0kts
30-Sep-17 20:19 39.123293 -108.528946 213 4834ft 0kts
30-Sep-17 20:20 39.123293 -108.528946 213 4834ft 0kts
30-Sep-17 20:21 39.123293 -108.528946 213 4834ft 0kts
30-Sep-17 20:22 39.123293 -108.528946 213 4834ft 0kts
30-Sep-17 20:23 39.123293 -108.528946 213 4834ft 0kts
30-Sep-17 20:24 39.123291 -108.528948 213 4834ft 0kts
30-Sep-17 20:25 39.123652 -108.528633 213 4837ft 0kts
30-Sep-17 20:26 39.123919 -108.528400 213 4839ft 0kts
30-Sep-17 20:27 39.123919 -108.528399 126 4839ft 0kts
30-Sep-17 20:28 39.123919 -108.528399 126 4839ft 0kts
30-Sep-17 20:29 39.123919 -108.528399 126 4839ft 0kts
30-Sep-17 20:30 39.123919 -108.528399 126 4839ft 0kts
30-Sep-17 20:31 39.123914 -108.528396 123 4839ft 0kts
30-Sep-17 20:32 39.123470 -108.527611 125 4840ft 6kts
30-Sep-17 20:33 39.122909 -108.526105 64 4843ft 3kts
30-Sep-17 20:34 39.122951 -108.526016 55 4843ft 0kts
30-Sep-17 20:35 39.123160 -108.525275 121 4848ft 6kts
30-Sep-17 20:36 39.121294 -108.521876 124 4847ft 14kts
30-Sep-17 20:37 39.119287 -108.518210 125 4849ft 13kts
30-Sep-17 20:38 39.118320 -108.516467 124 4850ft 0kts
30-Sep-17 20:39 39.118320 -108.516467 124 4850ft 0kts
30-Sep-17 20:40 39.118320 -108.516467 124 4850ft 0kts
30-Sep-17 20:41 39.118106 -108.516078 125 4850ft 5kts
30-Sep-17 20:42 39.118895 -108.515070 301 4854ft 0kts
30-Sep-17 20:43 39.125699 -108.527538 305 4849ft 138kts
30-Sep-17 20:44 39.144937 -108.578133 279 6407ft 167kts
30-Sep-17 20:45 39.156495 -108.640009 274 9375ft 190kts
30-Sep-17 20:46 39.116625 -108.662709 140 12066ft 234kts
30-Sep-17 20:47 39.106928 -108.578288 78 14018ft 259kts
30-Sep-17 20:48 39.125711 -108.489852 76 15335ft 267kts
30-Sep-17 20:49 39.143703 -108.399699 76 16705ft 287kts
30-Sep-17 20:50 39.164377 -108.295934 76 16948ft 323kts
30-Sep-17 20:51 39.186138 -108.186597 76 17105ft 292kts
30-Sep-17 20:52 39.201775 -108.110927 76 14523ft 224kts
30-Sep-17 20:53 39.218753 -108.037275 75 12912ft 284kts
30-Sep-17 20:54 39.242902 -107.932588 74 14909ft 313kts
30-Sep-17 20:55 39.263921 -107.833012 76 18382ft 291kts
30-Sep-17 20:56 39.278531 -107.724512 81 19015ft 366kts
30-Sep-17 20:57 39.300453 -107.609714 76 19049ft 371kts
30-Sep-17 20:58 39.318660 -107.517804 76 19049ft 337kts
30-Sep-17 20:59 39.342358 -107.436762 59 19093ft 293kts
30-Sep-17 21:00 39.373317 -107.367965 58 19096ft 296kts
30-Sep-17 21:01 39.408141 -107.290664 59 18074ft 299kts
30-Sep-17 21:02 39.442889 -107.213635 59 16940ft 281kts
30-Sep-17 21:03 39.479089 -107.133656 59 15536ft 272kts
30-Sep-17 21:04 39.511695 -107.048359 95 14085ft 258kts
30-Sep-17 21:05 39.479168 -106.988255 156 13596ft 199kts
30-Sep-17 21:06 39.443438 -106.972044 172 13243ft 156kts
30-Sep-17 21:07 39.407076 -106.957486 166 13026ft 158kts
30-Sep-17 21:08 39.369762 -106.938992 165 12751ft 159kts
30-Sep-17 21:09 39.338654 -106.924061 166 12078ft 157kts
30-Sep-17 21:10 39.300388 -106.905796 165 10538ft 155kts
30-Sep-17 21:11 39.261763 -106.886389 169 8467ft 144kts
30-Sep-17 21:12 39.228732 -106.871325 159 7698ft 93kts
30-Sep-17 21:13 39.225491 -106.868589 150 7723ft 2kts

Navigation Log

Ident Type
Flight plan parsing failed, navigation log unavailable